WetterOnline ( https://www.wetteronline.ch )

Wetter aktuell Feldberg Gipfel

Aktuelles Wetter: Feldberg/Schwarzwald (1493m)

6-stündlich | Neueste Meldungen
Ortszeit Temperatur Wetter
Mo, 27.06. 20:00 10.3° C bedeckt
Mo, 27.06. 14:00 10.4° C Nebel
Mo, 27.06. 8:00 12.6° C bedeckt
Mo, 27.06. 2:00 10.8° C bewölkt
So, 26.06. 20:00 15.6° C fast wolkenlos
So, 26.06. 14:00 15.8° C bewölkt
So, 26.06. 8:00 13.4° C bewölkt
So, 26.06. 2:00 11.6° C bedeckt
Ortszeit Temperatur Wetter
Mo, 27.06. 23:00 9.1° C Nebel
Mo, 27.06. 22:50 9.1° C bedeckt
Mo, 27.06. 22:40 9.8° C bedeckt
Mo, 27.06. 22:30 10.0° C Nebel
Mo, 27.06. 22:20 10.0° C Nebel
Mo, 27.06. 22:10 9.9° C Nebel
Mo, 27.06. 22:00 10.0° C Nebel
Mo, 27.06. 21:30 10.2° C Nebel
Mo, 27.06. 21:00 10.2° C leichter Regen
Mo, 27.06. 20:30 10.2° C bewölkt
Mo, 27.06. 20:00 10.3° C bedeckt
Ortszeit Relative Feuchte Sichtweite
Mo, 27.06. 20:00 94% 30 km
Mo, 27.06. 14:00 99% <100 m
Mo, 27.06. 8:00 84% 65 km
Mo, 27.06. 2:00 100% 15 km
So, 26.06. 20:00 90% 45 km
So, 26.06. 14:00 85% 55 km
So, 26.06. 8:00 70% 55 km
So, 26.06. 2:00 89% 50 km
Ortszeit Relative Feuchte Sichtweite
Mo, 27.06. 23:00 97% 8 km
Mo, 27.06. 22:50 97% -
Mo, 27.06. 22:40 99% -
Mo, 27.06. 22:30 99% <100 m
Mo, 27.06. 22:20 99% -
Mo, 27.06. 22:10 100% -
Mo, 27.06. 22:00 99% <100 m
Mo, 27.06. 21:30 99% <100 m
Mo, 27.06. 21:00 99% <100 m
Mo, 27.06. 20:30 97% 2.5 km
Mo, 27.06. 20:00 94% 30 km
Ortszeit Niederschlagsmenge Niederschlagsart
Mo, 27.06. 20:00 0.3 l/m2 in 12 Std. Regen
Mo, 27.06. 14:00 0.0 l/m2 in 6 Std. -
Mo, 27.06. 8:00 6 l/m2 in 12 Std. Regen
Mo, 27.06. 2:00 6 l/m2 in 6 Std. Regen, Niederschlag
So, 26.06. 20:00 0.0 l/m2 in 12 Std. -
So, 26.06. 14:00 0.0 l/m2 in 6 Std. -
So, 26.06. 8:00 3 l/m2 in 12 Std. Regen
So, 26.06. 2:00 3 l/m2 in 6 Std. Regen
Ortszeit Niederschlagsmenge Niederschlagsart
Mo, 27.06. 23:00 0.0 l/m2 in 1 Std. Regen
Mo, 27.06. 22:50 keine Meldung -
Mo, 27.06. 22:40 keine Meldung -
Mo, 27.06. 22:30 0.0 l/m2 in 1 Std. -
Mo, 27.06. 22:20 keine Meldung -
Mo, 27.06. 22:10 keine Meldung -
Mo, 27.06. 22:00 0.2 l/m2 in 1 Std. Regen
Mo, 27.06. 21:30 0.2 l/m2 in 1 Std. -
Mo, 27.06. 21:00 0.1 l/m2 in 1 Std. Regen
Mo, 27.06. 20:30 0.1 l/m2 in 1 Std. Schneeregen
Mo, 27.06. 20:00 0.2 l/m2 in 1 Std. Regen
Ortszeit Stärke Spitze Richtung
km/h Bft. km/h Grad Sektor
Mo, 27.06. 20:00 11 2 36 280° W
Mo, 27.06. 14:00 18 3 29 270° W
Mo, 27.06. 8:00 7 2 33 330° NW
Mo, 27.06. 2:00 13 3 94 340° N
So, 26.06. 20:00 25 4 32 70° O
So, 26.06. 14:00 7 2 29 40° NO
So, 26.06. 8:00 17 3 31 160° S
So, 26.06. 2:00 28 4 37 190° S
Ortszeit Stärke Spitze Richtung
km/h Bft. km/h Grad Sektor
Mo, 27.06. 23:00 14 3 22 270° W
Mo, 27.06. 22:50 14 3 - 270° W
Mo, 27.06. 22:40 7 2 - 230° SW
Mo, 27.06. 22:30 13 3 22 260° W
Mo, 27.06. 22:20 13 3 - 260° W
Mo, 27.06. 22:10 11 2 - 250° W
Mo, 27.06. 22:00 13 3 30 230° SW
Mo, 27.06. 21:30 20 4 30 210° SW
Mo, 27.06. 21:00 19 3 26 230° SW
Mo, 27.06. 20:30 13 3 17 240° SW
Mo, 27.06. 20:00 11 2 29 280° W
Ortszeit Untergrenze Bedeckung Gattung
total tief tief mittel hoch
Mo, 27.06. 20:00 1500 m 8/8 8/8 - - -
Mo, 27.06. 14:00 30 m 7/8 7/8 - - -
Mo, 27.06. 8:00 960 m 8/8 8/8 - - -
Mo, 27.06. 2:00 <30 m 8/8 0/8 - - -
So, 26.06. 20:00 8400 m 1/8 0/8 - - -
So, 26.06. 14:00 690 m 7/8 7/8 - - -
So, 26.06. 8:00 2700 m 7/8 7/8 - - -
So, 26.06. 2:00 1800 m 8/8 8/8 - - -
Ortszeit Bedeckungsgrad in Achtel und Wolkenuntergrenze
Mo, 27.06. 23:00 7(30m) 8(1800m) 8(2100m)
Mo, 27.06. 22:50 7(30m) 8(1800m) 8(2100m)
Mo, 27.06. 22:40 8
Mo, 27.06. 22:30 8(<30m) 8(1500m)
Mo, 27.06. 22:20 8(<30m) 8(1500m)
Mo, 27.06. 22:10 8
Mo, 27.06. 22:00 5(30m) 7(1800m) 8(2100m)
Mo, 27.06. 21:30 7(<30m) 7(1800m)
Mo, 27.06. 21:00 6(30m) 7(1800m) 8(3600m)
Mo, 27.06. 20:30 7(1800m) 7(3300m) 7(5400m)
Mo, 27.06. 20:00 7(1500m) 8(2100m)
Ortszeit Stationsdruck (hPa) Tendenz (hPa in 3 Std.)
Mo, 27.06. 20:00 856 + 1,1
Mo, 27.06. 14:00 854 + 1,5
Mo, 27.06. 8:00 852 + 0,3
Mo, 27.06. 2:00 851 + 2,7
So, 26.06. 20:00 850 - 1,3
So, 26.06. 14:00 852 - 0,1
So, 26.06. 8:00 851 + 0,4
So, 26.06. 2:00 851 + 0,6
Ortszeit Stationsdruck (hPa) Tendenz (hPa in 3 Std.)
Mo, 27.06. 23:00 856 + 0,6
Mo, 27.06. 22:50 856 keine Meldung
Mo, 27.06. 22:40 856 keine Meldung
Mo, 27.06. 22:30 857 + 1,2
Mo, 27.06. 22:20 857 keine Meldung
Mo, 27.06. 22:10 856 keine Meldung
Mo, 27.06. 22:00 856 + 0,7
Mo, 27.06. 21:30 856 + 0,3
Mo, 27.06. 21:00 856 + 1,4
Mo, 27.06. 20:30 856 + 1,4
Mo, 27.06. 20:00 856 + 1,1
Ortszeit Schneehöhe (cm)
Mo, 27.06. 20:00 0
Mo, 27.06. 14:00 0
Mo, 27.06. 8:00 0
Mo, 27.06. 2:00 0
So, 26.06. 20:00 0
So, 26.06. 14:00 0
So, 26.06. 8:00 0
So, 26.06. 2:00 0
Ortszeit Schneehöhe (cm)
Mo, 27.06. 23:00 0
Mo, 27.06. 22:50 0
Mo, 27.06. 22:40 0
Mo, 27.06. 22:30 0
Mo, 27.06. 22:20 0
Mo, 27.06. 22:10 0
Mo, 27.06. 22:00 0
Mo, 27.06. 21:30 0
Mo, 27.06. 21:00 0
Mo, 27.06. 20:30 0
Mo, 27.06. 20:00 0
Link zu dieser Seite / Seite empfehlen

Das Wetter in ...